createdAt,value
2023-04-29T00:01:14.942Z,98526.13
2023-04-29T00:03:41.881Z,98512.31
2023-04-29T00:06:08.946Z,98520.50
2023-04-29T00:08:35.797Z,98517.50
2023-04-29T00:11:02.487Z,98520.50
2023-04-29T00:13:29.631Z,98535.78
2023-04-29T00:15:56.319Z,98528.06
2023-04-29T00:18:22.999Z,98528.28
2023-04-29T00:20:49.695Z,98533.91
2023-04-29T00:23:16.672Z,98538.06
2023-04-29T00:25:43.389Z,98531.75
2023-04-29T00:28:10.303Z,98531.03
2023-04-29T00:30:37.451Z,98529.34
2023-04-29T00:33:04.421Z,98527.31
2023-04-29T00:35:31.470Z,98531.03
2023-04-29T00:37:58.529Z,98522.06
2023-04-29T00:40:25.309Z,98517.31
2023-04-29T00:42:52.060Z,98529.41
2023-04-29T00:45:18.918Z,98524.41
2023-04-29T00:47:45.947Z,98534.91
2023-04-29T00:50:12.894Z,98541.66
2023-04-29T00:52:40.057Z,98529.59
2023-04-29T00:55:09.495Z,98532.44
2023-04-29T00:57:36.269Z,98529.50
2023-04-29T01:00:04.293Z,98531.75
2023-04-29T01:02:31.221Z,98533.63
2023-04-29T01:04:58.134Z,98538.47
2023-04-29T01:08:10.073Z,98534.88
2023-04-29T01:11:01.915Z,98535.88
2023-04-29T01:13:44.727Z,98528.38
2023-04-29T01:16:22.750Z,98533.69
2023-04-29T01:18:57.784Z,98543.75
2023-04-29T01:21:25.545Z,98537.81
2023-04-29T01:23:56.452Z,98546.78
2023-04-29T01:26:24.145Z,98546.00
2023-04-29T01:29:17.042Z,98540.13
2023-04-29T01:31:54.079Z,98537.94
2023-04-29T01:34:31.396Z,98537.94
2023-04-29T01:37:35.085Z,98534.91
2023-04-29T01:40:04.621Z,98538.50
2023-04-29T01:42:39.367Z,98542.63
2023-04-29T01:45:08.186Z,98540.44
2023-04-29T01:47:36.390Z,98536.53
2023-04-29T01:50:03.518Z,98539.06
2023-04-29T01:52:30.278Z,98547.41
2023-04-29T01:54:57.954Z,98546.56
2023-04-29T01:57:24.822Z,98545.81
2023-04-29T01:59:51.943Z,98553.13
2023-04-29T02:02:21.906Z,98544.25
2023-04-29T02:04:49.950Z,98549.00
2023-04-29T02:07:17.436Z,98541.69
2023-04-29T02:09:44.213Z,98542.38
2023-04-29T02:12:10.994Z,98538.09
2023-04-29T02:14:38.067Z,98535.56
2023-04-29T02:17:04.927Z,98542.16
2023-04-29T02:19:31.641Z,98544.97
2023-04-29T02:21:58.416Z,98545.16
2023-04-29T02:24:25.375Z,98558.78
2023-04-29T02:26:52.278Z,98539.00
2023-04-29T02:29:19.342Z,98550.31
2023-04-29T02:31:46.051Z,98545.28
2023-04-29T02:34:12.790Z,98545.53
2023-04-29T02:36:39.757Z,98553.31
2023-04-29T02:39:06.594Z,98560.75
2023-04-29T02:41:33.624Z,98555.94
2023-04-29T02:44:00.731Z,98558.19
2023-04-29T02:46:27.526Z,98558.72
2023-04-29T02:48:54.246Z,98560.22
2023-04-29T02:51:20.945Z,98561.56
2023-04-29T02:53:47.759Z,98558.78
2023-04-29T02:56:14.421Z,98555.19
2023-04-29T02:58:42.566Z,98561.34
2023-04-29T03:01:09.304Z,98565.47
2023-04-29T03:03:36.103Z,98563.91
2023-04-29T03:06:03.646Z,98551.81
2023-04-29T03:08:30.353Z,98566.16
2023-04-29T03:10:57.280Z,98563.28
2023-04-29T03:13:23.975Z,98558.94
2023-04-29T03:15:50.880Z,98556.97
2023-04-29T03:18:17.618Z,98559.69
2023-04-29T03:20:44.323Z,98567.19
2023-04-29T03:23:11.034Z,98569.66
2023-04-29T03:25:37.765Z,98565.53
2023-04-29T03:28:04.677Z,98567.19
2023-04-29T03:30:31.486Z,98567.56
2023-04-29T03:32:58.266Z,98574.06
2023-04-29T03:35:24.979Z,98576.41
2023-04-29T03:37:51.806Z,98569.56
2023-04-29T03:40:18.480Z,98565.16
2023-04-29T03:42:45.234Z,98573.53
2023-04-29T03:45:14.595Z,98565.66
2023-04-29T03:47:41.814Z,98576.53
2023-04-29T03:50:09.359Z,98576.59
2023-04-29T03:52:39.206Z,98578.78
2023-04-29T03:55:06.318Z,98581.78
2023-04-29T03:57:33.119Z,98578.34
2023-04-29T04:00:00.243Z,98584.00
2023-04-29T04:02:27.133Z,98587.75
2023-04-29T04:04:55.747Z,98585.81
2023-04-29T04:07:22.618Z,98592.75
2023-04-29T04:09:49.573Z,98589.16
2023-04-29T04:12:16.758Z,98592.16
2023-04-29T04:14:43.522Z,98596.38
2023-04-29T04:17:10.327Z,98609.78
2023-04-29T04:19:37.204Z,98611.16
2023-04-29T04:22:05.148Z,98614.81
2023-04-29T04:24:32.086Z,98611.16
2023-04-29T04:26:58.805Z,98619.78
2023-04-29T04:29:25.782Z,98622.13
2023-04-29T04:31:52.538Z,98613.09
2023-04-29T04:34:19.291Z,98627.66
2023-04-29T04:36:46.729Z,98631.59
2023-04-29T04:39:13.570Z,98637.91
2023-04-29T04:41:40.287Z,98639.88
2023-04-29T04:44:07.382Z,98639.06
2023-04-29T04:46:34.802Z,98646.50
2023-04-29T04:49:01.582Z,98639.25
2023-04-29T04:51:29.315Z,98656.03
2023-04-29T04:53:56.118Z,98655.97
2023-04-29T04:56:22.964Z,98654.06
2023-04-29T04:58:49.788Z,98659.66
2023-04-29T05:01:16.574Z,98655.75
2023-04-29T05:03:43.598Z,98662.03
2023-04-29T05:06:10.410Z,98659.66
2023-04-29T05:08:37.403Z,98666.31
2023-04-29T05:11:04.191Z,98658.03
2023-04-29T05:13:30.955Z,98673.38
2023-04-29T05:15:57.700Z,98676.50
2023-04-29T05:18:24.462Z,98676.78
2023-04-29T05:20:51.469Z,98671.53
2023-04-29T05:23:18.328Z,98676.16
2023-04-29T05:25:45.309Z,98681.41
2023-04-29T05:28:12.075Z,98681.13
2023-04-29T05:30:38.834Z,98681.47
2023-04-29T05:33:05.672Z,98680.16
2023-04-29T05:35:33.246Z,98689.25
2023-04-29T05:37:59.969Z,98685.91
2023-04-29T05:40:27.503Z,98689.75
2023-04-29T05:42:54.418Z,98701.06
2023-04-29T05:45:21.257Z,98705.41
2023-04-29T05:47:48.297Z,98709.34
2023-04-29T05:50:15.230Z,98706.38
2023-04-29T05:52:42.089Z,98712.63
2023-04-29T05:55:09.485Z,98720.06
2023-04-29T05:57:36.357Z,98708.81
2023-04-29T06:00:04.577Z,98714.56
2023-04-29T06:02:31.459Z,98724.78
2023-04-29T06:04:58.287Z,98720.19
2023-04-29T06:07:25.186Z,98721.31
2023-04-29T06:09:52.014Z,98728.22
2023-04-29T06:12:18.916Z,98731.34
2023-04-29T06:14:45.649Z,98738.75
2023-04-29T06:17:13.179Z,98734.00
2023-04-29T06:19:39.969Z,98739.47
2023-04-29T06:22:06.673Z,98746.03
2023-04-29T06:24:55.536Z,98743.38
2023-04-29T06:30:31.965Z,98767.91
2023-04-29T06:32:59.165Z,98763.13
2023-04-29T06:35:26.020Z,98773.03
2023-04-29T06:37:53.467Z,98773.22
2023-04-29T06:40:23.796Z,98776.47
2023-04-29T06:42:52.593Z,98782.09
2023-04-29T06:45:19.489Z,98771.75
2023-04-29T06:47:47.016Z,98782.06
2023-04-29T06:50:13.986Z,98787.19
2023-04-29T06:52:41.067Z,98789.47
2023-04-29T06:55:25.126Z,98801.06
2023-04-29T06:58:03.948Z,98805.41
2023-04-29T07:00:34.008Z,98805.72
2023-04-29T07:03:01.130Z,98809.63
2023-04-29T07:05:28.063Z,98810.94
2023-04-29T07:07:55.292Z,98811.31
2023-04-29T07:10:22.116Z,98814.91
2023-04-29T07:12:48.924Z,98816.94
2023-04-29T07:15:15.973Z,98818.25
2023-04-29T07:17:42.835Z,98821.72
2023-04-29T07:20:10.376Z,98827.13
2023-04-29T07:22:37.294Z,98825.75
2023-04-29T07:25:05.034Z,98831.38
2023-04-29T07:27:34.791Z,98834.59
2023-04-29T07:30:01.843Z,98837.03
2023-04-29T07:32:28.956Z,98853.81
2023-04-29T07:34:56.105Z,98846.06
2023-04-29T07:37:22.998Z,98854.53
2023-04-29T07:39:49.865Z,98860.16
2023-04-29T07:42:16.600Z,98867.03
2023-04-29T07:44:43.578Z,98866.50
2023-04-29T07:47:10.667Z,98868.53
2023-04-29T07:49:37.733Z,98876.81
2023-04-29T07:52:10.485Z,98876.44
2023-04-29T07:54:37.411Z,98887.78
2023-04-29T07:57:05.089Z,98891.63
2023-04-29T07:59:32.671Z,98889.75
2023-04-29T08:02:02.386Z,98888.47
2023-04-29T08:04:29.677Z,98887.63
2023-04-29T08:06:57.066Z,98900.06
2023-04-29T08:09:24.042Z,98908.66
2023-04-29T08:11:51.053Z,98911.84
2023-04-29T08:14:17.814Z,98906.06
2023-04-29T08:16:44.957Z,98916.47
2023-04-29T08:19:11.753Z,98915.16
2023-04-29T08:21:38.630Z,98919.47
2023-04-29T08:24:06.367Z,98927.19
2023-04-29T08:26:33.205Z,98934.06
2023-04-29T08:29:00.665Z,98929.81
2023-04-29T08:31:27.597Z,98934.91
2023-04-29T08:33:54.924Z,98936.66
2023-04-29T08:36:21.976Z,98936.03
2023-04-29T08:38:49.447Z,98944.13
2023-04-29T08:41:17.137Z,98928.28
2023-04-29T08:43:44.059Z,98935.72
2023-04-29T08:46:11.235Z,98933.28
2023-04-29T08:48:42.566Z,98941.69
2023-04-29T08:51:13.777Z,98951.44
2023-04-29T08:53:40.621Z,98953.06
2023-04-29T08:56:14.935Z,98955.97
2023-04-29T08:58:42.593Z,98959.16
2023-04-29T09:01:10.472Z,98962.16
2023-04-29T09:03:48.548Z,98968.03
2023-04-29T09:06:15.718Z,98961.34
2023-04-29T09:08:42.675Z,98962.34
2023-04-29T09:11:12.017Z,98971.50
2023-04-29T09:13:38.957Z,98972.88
2023-04-29T09:16:12.157Z,98973.56
2023-04-29T09:18:52.095Z,98978.81
2023-04-29T09:21:27.591Z,98976.44
2023-04-29T09:24:01.967Z,98965.31
2023-04-29T09:26:37.046Z,98969.13
2023-04-29T09:29:14.701Z,98975.72
2023-04-29T09:31:42.506Z,98992.84
2023-04-29T09:34:09.664Z,98984.78
2023-04-29T09:36:50.574Z,98983.97
2023-04-29T09:39:20.033Z,98992.41
2023-04-29T09:42:13.553Z,98991.28
2023-04-29T09:44:42.854Z,98993.88
2023-04-29T09:47:10.836Z,98998.13
2023-04-29T09:49:41.132Z,99002.44
2023-04-29T09:52:10.130Z,99001.81
2023-04-29T09:54:39.442Z,99001.66
2023-04-29T09:57:07.509Z,99003.38
2023-04-29T09:59:37.071Z,99010.00
2023-04-29T10:02:11.126Z,99012.88
2023-04-29T10:04:41.158Z,99015.97
2023-04-29T10:07:09.914Z,99020.69
2023-04-29T10:09:38.444Z,99020.47
2023-04-29T10:12:06.450Z,99020.69
2023-04-29T10:14:38.332Z,99018.81
2023-04-29T10:17:19.748Z,99020.31
2023-04-29T10:19:54.106Z,99019.75
2023-04-29T10:22:30.767Z,99025.00
2023-04-29T10:24:57.811Z,99021.97
2023-04-29T10:27:25.438Z,99020.72
2023-04-29T10:29:53.768Z,99033.66
2023-04-29T10:32:22.263Z,99033.44
2023-04-29T10:34:49.992Z,99035.91
2023-04-29T10:37:17.959Z,99026.75
2023-04-29T10:40:04.573Z,99025.31
2023-04-29T10:42:46.182Z,99033.28
2023-04-29T10:45:35.257Z,99028.34
2023-04-29T10:48:13.475Z,99028.22
2023-04-29T10:51:01.673Z,99024.94
2023-04-29T10:53:29.508Z,99031.19
2023-04-29T10:56:09.644Z,99038.41
2023-04-29T10:58:46.818Z,99039.69
2023-04-29T11:01:15.845Z,99043.06
2023-04-29T11:04:03.319Z,99042.56
2023-04-29T11:06:41.879Z,99056.72
2023-04-29T11:09:29.769Z,99052.56
2023-04-29T11:12:04.250Z,99045.16
2023-04-29T11:15:03.353Z,99057.41
2023-04-29T11:17:36.726Z,99060.88
2023-04-29T11:20:04.204Z,99062.00
2023-04-29T11:22:32.459Z,99061.88
2023-04-29T11:25:10.303Z,99063.50
2023-04-29T11:27:39.070Z,99062.66
2023-04-29T11:30:07.121Z,99067.22
2023-04-29T11:32:40.674Z,99066.75
2023-04-29T11:35:12.387Z,99072.50
2023-04-29T11:37:39.757Z,99080.06
2023-04-29T11:40:07.574Z,99081.97
2023-04-29T11:42:43.137Z,99092.44
2023-04-29T11:45:10.481Z,99085.94
2023-04-29T11:47:37.593Z,99088.81
2023-04-29T11:50:10.050Z,99094.31
2023-04-29T11:52:38.749Z,99092.94
2023-04-29T11:55:06.262Z,99099.19
2023-04-29T11:57:33.133Z,99104.69
2023-04-29T11:59:59.932Z,99107.94
2023-04-29T12:02:33.636Z,99107.16
2023-04-29T12:05:02.062Z,99113.41
2023-04-29T12:07:29.826Z,99115.81
2023-04-29T12:10:00.422Z,99118.81
2023-04-29T12:12:28.075Z,99117.53
2023-04-29T12:14:55.397Z,99125.81
2023-04-29T12:17:22.414Z,99121.28
2023-04-29T12:19:49.894Z,99129.69
2023-04-29T12:22:16.789Z,99115.97
2023-04-29T12:24:43.571Z,99120.16
2023-04-29T12:27:11.160Z,99128.50
2023-04-29T12:29:38.602Z,99129.41
2023-04-29T12:32:05.717Z,99124.28
2023-04-29T12:34:33.266Z,99131.31
2023-04-29T12:37:01.139Z,99129.72
2023-04-29T12:39:28.627Z,99136.06
2023-04-29T12:41:58.101Z,99130.28
2023-04-29T12:44:25.693Z,99139.63
2023-04-29T12:46:58.402Z,99135.16
2023-04-29T12:49:25.412Z,99135.25
2023-04-29T12:51:52.181Z,99136.81
2023-04-29T12:54:18.989Z,99133.22
2023-04-29T12:56:49.188Z,99145.44
2023-04-29T12:59:16.874Z,99140.34
2023-04-29T13:01:43.721Z,99147.94
2023-04-29T13:04:12.345Z,99146.50
2023-04-29T13:06:42.999Z,99139.03
2023-04-29T13:09:18.336Z,99137.22
2023-04-29T13:11:45.689Z,99143.72
2023-04-29T13:14:13.023Z,99148.50
2023-04-29T13:16:40.881Z,99141.25
2023-04-29T13:19:24.610Z,99141.09
2023-04-29T13:21:54.578Z,99142.63
2023-04-29T13:24:21.453Z,99148.97
2023-04-29T13:26:52.422Z,99149.78
2023-04-29T13:29:19.548Z,99150.38
2023-04-29T13:31:46.423Z,99151.56
2023-04-29T13:34:13.390Z,99159.03
2023-04-29T13:36:40.250Z,99145.63
2023-04-29T13:39:07.382Z,99153.22
2023-04-29T13:41:35.631Z,99162.16
2023-04-29T13:44:03.383Z,99156.31
2023-04-29T13:46:33.101Z,99165.50
2023-04-29T13:51:53.208Z,99160.84
2023-04-29T14:04:17.522Z,99165.94
2023-04-29T14:06:44.572Z,99168.44
2023-04-29T14:09:11.301Z,99172.81
2023-04-29T14:11:38.412Z,99175.69
2023-04-29T14:14:05.480Z,99177.31
2023-04-29T14:16:32.753Z,99169.09
2023-04-29T14:19:01.375Z,99164.19
2023-04-29T14:21:32.175Z,99165.41
2023-04-29T14:23:59.888Z,99165.91
2023-04-29T14:26:28.826Z,99173.56
2023-04-29T14:28:59.992Z,99177.47
2023-04-29T14:31:29.202Z,99181.47
2023-04-29T14:33:56.907Z,99192.41
2023-04-29T14:36:24.097Z,99180.66
2023-04-29T14:38:51.494Z,99191.63
2023-04-29T14:41:18.635Z,99201.69
2023-04-29T14:43:46.151Z,99196.03
2023-04-29T14:46:13.246Z,99193.69
2023-04-29T14:48:40.119Z,99208.09
2023-04-29T14:51:07.593Z,99202.94
2023-04-29T14:53:34.637Z,99199.25
2023-04-29T14:56:01.503Z,99201.78
2023-04-29T14:58:28.356Z,99207.16
2023-04-29T15:00:55.215Z,99218.91
2023-04-29T15:03:23.169Z,99215.75
2023-04-29T15:05:51.612Z,99215.66
2023-04-29T15:08:19.738Z,99214.97
2023-04-29T15:10:50.253Z,99217.91
2023-04-29T15:13:17.158Z,99223.47
2023-04-29T15:15:43.948Z,99220.00
2023-04-29T15:18:10.894Z,99223.56
2023-04-29T15:20:38.271Z,99227.81
2023-04-29T15:23:06.135Z,99222.69
2023-04-29T15:25:36.354Z,99225.59
2023-04-29T15:28:05.033Z,99212.84
2023-04-29T15:30:32.204Z,99229.03
2023-04-29T15:32:59.342Z,99231.81
2023-04-29T15:35:27.943Z,99239.41
2023-04-29T15:37:54.801Z,99245.66
2023-04-29T15:40:22.089Z,99242.13
2023-04-29T15:42:49.082Z,99232.69
2023-04-29T15:45:17.288Z,99244.53
2023-04-29T15:47:44.233Z,99252.28
2023-04-29T15:50:11.625Z,99257.84
2023-04-29T15:52:38.426Z,99251.22
2023-04-29T15:55:08.978Z,99252.53
2023-04-29T15:57:41.557Z,99247.16
2023-04-29T16:00:09.339Z,99260.09
2023-04-29T16:02:36.169Z,99261.47
2023-04-29T16:05:03.378Z,99254.34
2023-04-29T16:07:30.806Z,99265.13
2023-04-29T16:09:57.493Z,99269.56
2023-04-29T16:12:24.225Z,99274.66
2023-04-29T16:14:51.460Z,99275.88
2023-04-29T16:17:18.805Z,99273.31
2023-04-29T16:19:45.481Z,99278.66
2023-04-29T16:22:12.286Z,99283.00
2023-04-29T16:24:38.994Z,99285.34
2023-04-29T16:27:05.710Z,99285.13
2023-04-29T16:29:32.626Z,99279.25
2023-04-29T16:31:59.400Z,99286.63
2023-04-29T16:34:26.216Z,99283.59
2023-04-29T16:36:52.986Z,99288.81
2023-04-29T16:39:19.684Z,99289.72
2023-04-29T16:41:46.693Z,99290.69
2023-04-29T16:44:13.632Z,99295.06
2023-04-29T16:46:40.615Z,99291.91
2023-04-29T16:49:07.721Z,99296.19
2023-04-29T16:51:34.474Z,99292.84
2023-04-29T16:54:01.210Z,99299.69
2023-04-29T16:56:28.030Z,99297.63
2023-04-29T16:58:54.856Z,99292.13
2023-04-29T17:01:21.642Z,99297.72
2023-04-29T17:03:48.542Z,99299.13
2023-04-29T17:06:18.357Z,99301.66
2023-04-29T17:08:45.882Z,99292.56
2023-04-29T17:11:12.848Z,99306.00
2023-04-29T17:13:39.725Z,99305.81
2023-04-29T17:16:07.654Z,99306.13
2023-04-29T17:18:34.605Z,99306.13
2023-04-29T17:21:01.350Z,99302.53
2023-04-29T17:23:28.397Z,99310.81
2023-04-29T17:25:55.781Z,99315.56
2023-04-29T17:28:23.799Z,99316.44
2023-04-29T17:30:50.592Z,99311.69
2023-04-29T17:33:17.878Z,99307.59
2023-04-29T17:35:45.594Z,99307.59
2023-04-29T17:38:12.467Z,99310.09
2023-04-29T17:40:39.666Z,99312.53
2023-04-29T17:43:06.529Z,99314.78
2023-04-29T17:45:33.714Z,99316.75
2023-04-29T17:48:00.847Z,99323.41
2023-04-29T17:50:28.076Z,99315.78
2023-04-29T17:52:54.832Z,99323.16
2023-04-29T17:55:21.637Z,99322.88
2023-04-29T17:57:48.537Z,99317.22
2023-04-29T18:00:15.345Z,99322.16
2023-04-29T18:02:42.560Z,99324.00
2023-04-29T18:05:09.438Z,99330.31
2023-04-29T18:07:36.349Z,99327.94
2023-04-29T18:10:03.204Z,99314.19
2023-04-29T18:12:30.005Z,99330.97
2023-04-29T18:14:56.912Z,99335.38
2023-04-29T18:17:23.723Z,99339.59
2023-04-29T18:19:50.571Z,99337.47
2023-04-29T18:22:17.410Z,99335.03
2023-04-29T18:24:44.599Z,99350.69
2023-04-29T18:27:11.366Z,99344.59
2023-04-29T18:29:38.105Z,99349.31
2023-04-29T18:32:08.114Z,99342.97
2023-04-29T18:34:35.178Z,99353.72
2023-04-29T18:37:01.932Z,99355.97
2023-04-29T18:39:29.064Z,99355.13
2023-04-29T18:41:56.475Z,99360.69
2023-04-29T18:44:23.225Z,99356.91
2023-04-29T18:46:49.995Z,99350.97
2023-04-29T18:49:18.210Z,99350.44
2023-04-29T18:51:48.412Z,99365.38
2023-04-29T18:54:17.567Z,99366.94
2023-04-29T18:56:48.668Z,99365.38
2023-04-29T18:59:21.359Z,99366.25
2023-04-29T19:01:48.963Z,99369.28
2023-04-29T19:04:16.594Z,99377.91
2023-04-29T19:06:43.495Z,99383.16
2023-04-29T19:09:11.726Z,99381.75
2023-04-29T19:11:38.480Z,99380.38
2023-04-29T19:14:06.306Z,99381.34
2023-04-29T19:16:35.513Z,99388.69
2023-04-29T19:19:04.505Z,99391.75
2023-04-29T19:21:33.424Z,99393.69
2023-04-29T19:24:00.227Z,99390.66
2023-04-29T19:26:26.968Z,99392.34
2023-04-29T19:28:53.686Z,99402.56
2023-04-29T19:31:20.510Z,99407.56
2023-04-29T19:33:48.642Z,99404.22
2023-04-29T19:36:15.383Z,99407.28
2023-04-29T19:38:42.115Z,99404.78
2023-04-29T19:41:08.973Z,99410.03
2023-04-29T19:43:35.915Z,99408.66
2023-04-29T19:46:02.779Z,99407.84
2023-04-29T19:48:29.595Z,99411.59
2023-04-29T19:50:59.734Z,99408.81
2023-04-29T19:53:27.155Z,99408.81
2023-04-29T19:55:54.292Z,99399.00
2023-04-29T19:58:21.036Z,99412.81
2023-04-29T20:00:47.776Z,99406.59
2023-04-29T20:03:14.766Z,99407.44
2023-04-29T20:05:41.680Z,99420.84
2023-04-29T20:08:08.442Z,99416.69
2023-04-29T20:10:35.149Z,99408.69
2023-04-29T20:13:02.016Z,99411.00
2023-04-29T20:15:28.974Z,99411.03
2023-04-29T20:17:56.274Z,99414.75
2023-04-29T20:20:24.583Z,99404.22
2023-04-29T20:22:51.297Z,99412.81
2023-04-29T20:25:18.212Z,99411.44
2023-04-29T20:27:44.897Z,99411.56
2023-04-29T20:30:11.946Z,99416.56
2023-04-29T20:32:38.867Z,99417.53
2023-04-29T20:35:06.223Z,99418.72
2023-04-29T20:37:33.000Z,99422.19
2023-04-29T20:39:59.989Z,99427.59
2023-04-29T20:42:28.767Z,99422.88
2023-04-29T20:44:56.777Z,99427.72
2023-04-29T20:47:23.535Z,99432.84
2023-04-29T20:49:50.510Z,99430.09
2023-04-29T20:52:17.544Z,99429.09
2023-04-29T20:54:44.288Z,99439.63
2023-04-29T20:57:11.016Z,99435.16
2023-04-29T20:59:37.803Z,99431.31
2023-04-29T21:02:05.106Z,99423.66
2023-04-29T21:04:31.814Z,99425.75
2023-04-29T21:06:58.503Z,99433.50
2023-04-29T21:09:25.418Z,99432.09
2023-04-29T21:11:52.207Z,99426.28
2023-04-29T21:14:19.189Z,99434.31
2023-04-29T21:16:45.933Z,99426.53
2023-04-29T21:19:12.642Z,99438.72
2023-04-29T21:21:39.397Z,99439.53
2023-04-29T21:24:06.327Z,99444.91
2023-04-29T21:26:33.117Z,99438.91
2023-04-29T21:28:59.949Z,99442.50
2023-04-29T21:31:26.794Z,99446.78
2023-04-29T21:33:53.546Z,99441.84
2023-04-29T21:36:20.371Z,99445.41
2023-04-29T21:38:47.422Z,99452.03
2023-04-29T21:41:26.789Z,99451.09
2023-04-29T21:43:55.235Z,99450.28
2023-04-29T21:46:22.113Z,99446.56
2023-04-29T21:48:49.257Z,99453.00
2023-04-29T21:51:16.062Z,99443.53
2023-04-29T21:53:43.037Z,99447.22
2023-04-29T21:56:09.772Z,99447.91
2023-04-29T21:58:36.590Z,99464.16
2023-04-29T22:01:05.679Z,99463.34
2023-04-29T22:03:32.602Z,99457.91
2023-04-29T22:05:59.526Z,99458.41
2023-04-29T22:08:26.341Z,99462.00
2023-04-29T22:10:53.048Z,99460.84
2023-04-29T22:13:19.781Z,99456.47
2023-04-29T22:15:46.467Z,99464.44
2023-04-29T22:18:13.173Z,99461.53
2023-04-29T22:20:39.941Z,99459.03
2023-04-29T22:23:06.659Z,99460.31
2023-04-29T22:25:33.421Z,99463.84
2023-04-29T22:28:00.358Z,99473.47
2023-04-29T22:30:27.074Z,99471.34
2023-04-29T22:32:54.059Z,99473.00
2023-04-29T22:35:21.092Z,99472.91
2023-04-29T22:37:47.928Z,99471.59
2023-04-29T22:40:14.847Z,99469.13
2023-04-29T22:42:43.165Z,99474.59
2023-04-29T22:45:11.632Z,99475.91
2023-04-29T22:47:38.522Z,99472.44
2023-04-29T22:50:06.397Z,99473.88
2023-04-29T22:52:33.169Z,99474.34
2023-04-29T22:55:00.266Z,99474.81
2023-04-29T22:57:27.114Z,99488.38
2023-04-29T22:59:57.860Z,99485.16
2023-04-29T23:02:29.618Z,99484.78
2023-04-29T23:04:57.191Z,99486.41
2023-04-29T23:07:27.150Z,99490.56
2023-04-29T23:09:54.522Z,99487.81
2023-04-29T23:12:21.489Z,99495.69
2023-04-29T23:14:48.254Z,99493.94
2023-04-29T23:17:15.053Z,99492.34
2023-04-29T23:19:42.690Z,99496.66
2023-04-29T23:22:09.635Z,99502.94
2023-04-29T23:24:36.680Z,99496.75
2023-04-29T23:27:03.745Z,99506.84
2023-04-29T23:29:36.909Z,99501.84
2023-04-29T23:32:03.807Z,99502.44
2023-04-29T23:34:30.526Z,99508.97
2023-04-29T23:36:57.948Z,99518.72
2023-04-29T23:39:24.663Z,99509.59
2023-04-29T23:41:52.097Z,99517.44
2023-04-29T23:44:18.820Z,99514.59
2023-04-29T23:46:45.681Z,99517.00
2023-04-29T23:49:12.624Z,99517.78
2023-04-29T23:51:39.432Z,99512.94
2023-04-29T23:54:06.214Z,99514.28
2023-04-29T23:56:33.971Z,99514.03
2023-04-29T23:59:00.999Z,99514.28
